createdAt,value
2023-07-06T00:00:46.366Z,41.80
2023-07-06T00:01:46.494Z,41.81
2023-07-06T00:02:46.515Z,41.81
2023-07-06T00:03:46.681Z,41.74
2023-07-06T00:04:46.644Z,41.73
2023-07-06T00:05:46.643Z,41.72
2023-07-06T00:06:46.708Z,41.72
2023-07-06T00:07:46.768Z,41.71
2023-07-06T00:08:46.837Z,41.70
2023-07-06T00:09:46.863Z,41.66
2023-07-06T00:10:46.946Z,41.68
2023-07-06T00:11:46.985Z,41.65
2023-07-06T00:12:47.065Z,41.65
2023-07-06T00:13:47.100Z,41.58
2023-07-06T00:14:47.162Z,41.65
2023-07-06T00:15:47.195Z,41.64
2023-07-06T00:16:47.340Z,41.61
2023-07-06T00:17:47.444Z,41.61
2023-07-06T00:18:47.355Z,41.57
2023-07-06T00:19:47.453Z,41.57
2023-07-06T00:20:47.544Z,41.66
2023-07-06T00:21:47.506Z,41.57
2023-07-06T00:22:47.590Z,41.53
2023-07-06T00:23:47.679Z,41.52
2023-07-06T00:24:47.758Z,41.63
2023-07-06T00:25:47.776Z,41.52
2023-07-06T00:26:47.895Z,41.55
2023-07-06T00:27:47.882Z,41.53
2023-07-06T00:28:47.926Z,41.51
2023-07-06T00:29:47.962Z,41.50
2023-07-06T00:30:48.052Z,41.53
2023-07-06T00:31:48.106Z,41.54
2023-07-06T00:32:48.231Z,41.49
2023-07-06T00:33:48.227Z,41.52
2023-07-06T00:34:48.273Z,41.49
2023-07-06T00:35:48.299Z,41.48
2023-07-06T00:36:48.434Z,41.42
2023-07-06T00:37:48.420Z,41.45
2023-07-06T00:38:48.500Z,41.46
2023-07-06T00:39:48.542Z,41.42
2023-07-06T00:40:48.621Z,41.41
2023-07-06T00:41:49.835Z,41.41
2023-07-06T00:42:48.714Z,41.32
2023-07-06T00:43:48.760Z,41.41
2023-07-06T00:44:48.870Z,41.34
2023-07-06T00:45:49.680Z,41.38
2023-07-06T00:46:48.948Z,41.36
2023-07-06T00:47:49.115Z,41.39
2023-07-06T00:48:49.058Z,41.32
2023-07-06T00:49:49.132Z,41.36
2023-07-06T00:50:49.159Z,41.34
2023-07-06T00:51:49.259Z,41.29
2023-07-06T00:52:49.344Z,41.34
2023-07-06T00:53:49.655Z,41.34
2023-07-06T00:54:49.407Z,41.29
2023-07-06T00:55:49.435Z,41.32
2023-07-06T00:56:49.465Z,41.25
2023-07-06T00:57:49.546Z,41.28
2023-07-06T00:58:49.644Z,41.25
2023-07-06T00:59:49.632Z,41.24
2023-07-06T01:00:49.942Z,41.26
2023-07-06T01:01:49.748Z,41.22
2023-07-06T01:02:49.968Z,41.21
2023-07-06T01:03:49.944Z,41.22
2023-07-06T01:04:49.990Z,41.21
2023-07-06T01:05:50.004Z,41.21
2023-07-06T01:06:50.026Z,41.22
2023-07-06T01:07:50.104Z,41.15
2023-07-06T01:08:50.158Z,41.22
2023-07-06T01:09:50.263Z,41.13
2023-07-06T01:10:50.264Z,41.12
2023-07-06T01:11:50.341Z,41.18
2023-07-06T01:12:50.374Z,41.13
2023-07-06T01:13:50.477Z,41.07
2023-07-06T01:14:50.490Z,41.13
2023-07-06T01:15:50.615Z,41.05
2023-07-06T01:16:50.682Z,41.09
2023-07-06T01:17:50.712Z,41.06
2023-07-06T01:18:50.734Z,41.08
2023-07-06T01:19:50.783Z,41.12
2023-07-06T01:20:50.818Z,41.05
2023-07-06T01:21:50.854Z,40.96
2023-07-06T01:22:50.912Z,40.91
2023-07-06T01:23:50.976Z,40.93
2023-07-06T01:24:51.015Z,40.95
2023-07-06T01:25:51.089Z,40.97
2023-07-06T01:26:51.119Z,40.92
2023-07-06T01:27:51.198Z,40.96
2023-07-06T01:28:51.237Z,40.91
2023-07-06T01:29:51.293Z,40.99
2023-07-06T01:30:51.352Z,40.86
2023-07-06T01:31:51.401Z,40.93
2023-07-06T01:32:51.576Z,40.89
2023-07-06T01:33:51.709Z,40.88
2023-07-06T01:34:51.553Z,40.85
2023-07-06T01:35:51.589Z,40.84
2023-07-06T01:36:51.672Z,40.85
2023-07-06T01:37:51.697Z,40.84
2023-07-06T01:38:51.750Z,40.81
2023-07-06T01:39:51.810Z,40.80
2023-07-06T01:40:51.871Z,40.82
2023-07-06T01:41:51.976Z,40.84
2023-07-06T01:42:51.995Z,40.81
2023-07-06T01:43:52.022Z,40.81
2023-07-06T01:44:52.109Z,40.81
2023-07-06T01:45:52.167Z,40.72
2023-07-06T01:46:52.277Z,40.78
2023-07-06T01:47:52.352Z,40.77
2023-07-06T01:48:52.322Z,40.78
2023-07-06T01:49:52.397Z,40.76
2023-07-06T01:50:52.387Z,40.73
2023-07-06T01:51:52.453Z,40.73
2023-07-06T01:52:52.525Z,40.76
2023-07-06T01:53:52.593Z,40.73
2023-07-06T01:54:52.633Z,40.81
2023-07-06T01:55:52.850Z,40.66
2023-07-06T01:56:52.734Z,40.70
2023-07-06T01:58:01.430Z,40.73
2023-07-06T01:58:54.192Z,40.71
2023-07-06T01:59:52.829Z,40.67
2023-07-06T02:00:52.862Z,40.72
2023-07-06T02:01:52.861Z,40.64
2023-07-06T02:02:52.829Z,40.68
2023-07-06T02:03:52.758Z,40.64
2023-07-06T02:04:52.755Z,40.64
2023-07-06T02:05:52.744Z,40.65
2023-07-06T02:06:52.765Z,40.62
2023-07-06T02:07:52.793Z,40.62
2023-07-06T02:08:52.819Z,40.63
2023-07-06T02:09:52.848Z,40.61
2023-07-06T02:10:52.934Z,40.61
2023-07-06T02:11:53.020Z,40.68
2023-07-06T02:12:53.054Z,40.61
2023-07-06T02:13:53.219Z,40.57
2023-07-06T02:14:53.168Z,40.58
2023-07-06T02:15:53.203Z,40.57
2023-07-06T02:16:53.308Z,40.60
2023-07-06T02:17:53.384Z,40.57
2023-07-06T02:18:53.359Z,40.57
2023-07-06T02:19:53.433Z,40.55
2023-07-06T02:20:53.481Z,40.47
2023-07-06T02:21:53.563Z,40.54
2023-07-06T02:22:53.607Z,40.50
2023-07-06T02:23:53.648Z,40.42
2023-07-06T02:24:53.718Z,40.50
2023-07-06T02:25:54.044Z,40.52
2023-07-06T02:26:53.780Z,40.50
2023-07-06T02:27:53.879Z,40.61
2023-07-06T02:28:53.964Z,40.46
2023-07-06T02:29:53.997Z,40.49
2023-07-06T02:30:54.246Z,40.44
2023-07-06T02:31:54.103Z,40.41
2023-07-06T02:32:54.246Z,40.38
2023-07-06T02:33:54.269Z,40.47
2023-07-06T02:34:54.244Z,40.42
2023-07-06T02:35:54.699Z,40.41
2023-07-06T02:36:54.354Z,40.50
2023-07-06T02:37:54.426Z,40.46
2023-07-06T02:38:54.723Z,40.39
2023-07-06T02:39:54.579Z,40.37
2023-07-06T02:40:54.573Z,40.41
2023-07-06T02:41:54.630Z,40.44
2023-07-06T02:42:54.666Z,40.39
2023-07-06T02:43:54.715Z,40.40
2023-07-06T02:44:54.802Z,40.30
2023-07-06T02:45:55.066Z,40.33
2023-07-06T02:46:54.913Z,40.38
2023-07-06T02:47:54.965Z,40.43
2023-07-06T02:48:54.998Z,40.32
2023-07-06T02:49:55.052Z,40.27
2023-07-06T02:50:55.134Z,40.21
2023-07-06T02:51:55.175Z,40.34
2023-07-06T02:52:55.181Z,40.30
2023-07-06T02:53:55.287Z,40.34
2023-07-06T02:54:55.368Z,40.22
2023-07-06T02:55:55.749Z,40.22
2023-07-06T02:56:55.465Z,40.18
2023-07-06T02:57:55.525Z,40.21
2023-07-06T02:58:55.591Z,40.19
2023-07-06T02:59:55.601Z,40.21
2023-07-06T03:00:55.642Z,40.31
2023-07-06T03:01:55.750Z,40.22
2023-07-06T03:02:55.864Z,40.22
2023-07-06T03:03:55.829Z,40.14
2023-07-06T03:04:55.921Z,40.19
2023-07-06T03:05:56.438Z,40.11
2023-07-06T03:06:56.039Z,40.03
2023-07-06T03:07:56.209Z,40.16
2023-07-06T03:08:56.113Z,40.06
2023-07-06T03:09:56.188Z,40.10
2023-07-06T03:10:56.216Z,40.03
2023-07-06T03:11:56.302Z,40.00
2023-07-06T03:12:56.353Z,40.09
2023-07-06T03:13:56.551Z,40.07
2023-07-06T03:14:56.434Z,40.11
2023-07-06T03:15:56.718Z,39.96
2023-07-06T03:16:56.564Z,39.91
2023-07-06T03:17:56.634Z,39.96
2023-07-06T03:18:56.652Z,39.97
2023-07-06T03:19:56.705Z,39.96
2023-07-06T03:20:56.771Z,39.96
2023-07-06T03:21:56.822Z,39.93
2023-07-06T03:22:56.889Z,39.98
2023-07-06T03:23:56.942Z,40.06
2023-07-06T03:24:56.973Z,40.00
2023-07-06T03:25:57.438Z,39.98
2023-07-06T03:26:57.108Z,39.94
2023-07-06T03:27:57.131Z,39.94
2023-07-06T03:28:57.239Z,39.97
2023-07-06T03:29:57.282Z,40.00
2023-07-06T03:30:57.364Z,39.88
2023-07-06T03:31:57.461Z,40.00
2023-07-06T03:32:57.537Z,39.98
2023-07-06T03:33:57.527Z,39.90
2023-07-06T03:34:57.580Z,39.94
2023-07-06T03:35:57.756Z,39.90
2023-07-06T03:36:57.670Z,39.89
2023-07-06T03:37:57.757Z,39.91
2023-07-06T03:38:57.821Z,39.89
2023-07-06T03:39:57.830Z,39.92
2023-07-06T03:40:57.915Z,39.87
2023-07-06T03:41:57.939Z,39.93
2023-07-06T03:42:58.062Z,39.90
2023-07-06T03:43:58.100Z,39.84
2023-07-06T03:44:58.192Z,39.90
2023-07-06T03:45:58.469Z,39.84
2023-07-06T03:46:58.290Z,39.87
2023-07-06T03:47:58.363Z,39.80
2023-07-06T03:48:58.401Z,39.84
2023-07-06T03:49:58.408Z,39.82
2023-07-06T03:50:58.438Z,39.85
2023-07-06T03:51:58.532Z,39.82
2023-07-06T03:52:58.640Z,39.80
2023-07-06T03:53:58.644Z,39.87
2023-07-06T03:54:58.832Z,39.85
2023-07-06T03:55:58.896Z,39.76
2023-07-06T03:56:58.878Z,39.83
2023-07-06T03:58:05.196Z,39.79
2023-07-06T03:58:59.917Z,39.82
2023-07-06T03:59:58.891Z,39.76
2023-07-06T04:00:58.907Z,39.76
2023-07-06T04:01:58.938Z,39.82
2023-07-06T04:02:58.928Z,39.77
2023-07-06T04:03:58.943Z,39.85
2023-07-06T04:04:58.827Z,39.76
2023-07-06T04:05:59.127Z,39.85
2023-07-06T04:06:58.913Z,39.79
2023-07-06T04:07:58.944Z,39.80
2023-07-06T04:08:59.237Z,39.78
2023-07-06T04:09:59.072Z,39.77
2023-07-06T04:10:59.186Z,39.71
2023-07-06T04:11:59.177Z,39.78
2023-07-06T04:12:59.315Z,39.79
2023-07-06T04:13:59.470Z,39.84
2023-07-06T04:14:59.338Z,39.75
2023-07-06T04:15:59.790Z,39.83
2023-07-06T04:16:59.540Z,39.78
2023-07-06T04:17:59.671Z,39.77
2023-07-06T04:18:59.640Z,39.74
2023-07-06T04:19:59.711Z,39.70
2023-07-06T04:20:59.760Z,39.84
2023-07-06T04:21:59.831Z,39.71
2023-07-06T04:22:59.878Z,39.77
2023-07-06T04:24:00.253Z,39.77
2023-07-06T04:24:59.987Z,39.73
2023-07-06T04:26:00.063Z,39.76
2023-07-06T04:27:00.143Z,39.79
2023-07-06T04:28:00.222Z,39.74
2023-07-06T04:29:00.364Z,39.70
2023-07-06T04:30:00.292Z,39.73
2023-07-06T04:31:00.391Z,39.69
2023-07-06T04:32:00.400Z,39.77
2023-07-06T04:33:00.488Z,39.70
2023-07-06T04:34:00.498Z,39.76
2023-07-06T04:35:00.568Z,39.74
2023-07-06T04:36:00.793Z,39.73
2023-07-06T04:37:00.700Z,39.73
2023-07-06T04:38:00.752Z,39.73
2023-07-06T04:39:00.818Z,39.72
2023-07-06T04:40:00.851Z,39.71
2023-07-06T04:41:00.947Z,39.71
2023-07-06T04:42:00.939Z,39.75
2023-07-06T04:43:00.958Z,39.78
2023-07-06T04:44:01.259Z,39.70
2023-07-06T04:45:00.980Z,39.75
2023-07-06T04:46:00.988Z,39.79
2023-07-06T04:47:01.118Z,39.75
2023-07-06T04:48:01.013Z,39.79
2023-07-06T04:49:01.040Z,39.71
2023-07-06T04:50:01.060Z,39.75
2023-07-06T04:51:01.065Z,39.71
2023-07-06T04:52:01.126Z,39.72
2023-07-06T04:53:01.138Z,39.69
2023-07-06T04:54:01.222Z,39.63
2023-07-06T04:55:01.227Z,39.58
2023-07-06T04:56:01.495Z,39.52
2023-07-06T04:57:01.342Z,39.55
2023-07-06T04:58:01.381Z,39.47
2023-07-06T04:59:01.748Z,39.45
2023-07-06T05:00:01.527Z,39.49
2023-07-06T05:01:01.570Z,39.49
2023-07-06T05:02:01.590Z,39.42
2023-07-06T05:03:01.764Z,39.45
2023-07-06T05:04:01.889Z,39.49
2023-07-06T05:05:01.704Z,39.36
2023-07-06T05:06:01.762Z,39.43
2023-07-06T05:07:01.786Z,39.44
2023-07-06T05:08:01.845Z,39.39
2023-07-06T05:09:01.845Z,39.45
2023-07-06T05:10:01.885Z,39.39
2023-07-06T05:11:01.898Z,39.38
2023-07-06T05:12:01.913Z,39.37
2023-07-06T05:13:01.923Z,39.33
2023-07-06T05:14:01.913Z,39.41
2023-07-06T05:15:01.887Z,39.42
2023-07-06T05:16:01.885Z,39.39
2023-07-06T05:17:01.930Z,39.42
2023-07-06T05:18:01.937Z,39.39
2023-07-06T05:19:01.918Z,39.40
2023-07-06T05:20:01.933Z,39.41
2023-07-06T05:21:01.920Z,39.39
2023-07-06T05:22:01.908Z,39.33
2023-07-06T05:23:01.945Z,39.37
2023-07-06T05:24:02.374Z,39.39
2023-07-06T05:25:01.948Z,39.38
2023-07-06T05:26:01.960Z,39.38
2023-07-06T05:27:01.966Z,39.38
2023-07-06T05:28:01.979Z,39.43
2023-07-06T05:29:02.026Z,39.39
2023-07-06T05:30:02.037Z,39.39
2023-07-06T05:31:02.011Z,39.41
2023-07-06T05:32:02.000Z,39.39
2023-07-06T05:33:02.053Z,39.43
2023-07-06T05:34:02.018Z,39.41
2023-07-06T05:35:02.027Z,39.40
2023-07-06T05:36:02.719Z,39.39
2023-07-06T05:37:02.013Z,39.48
2023-07-06T05:38:02.001Z,39.47
2023-07-06T05:39:01.982Z,39.45
2023-07-06T05:40:01.992Z,39.45
2023-07-06T05:41:02.025Z,39.39
2023-07-06T05:42:01.999Z,39.41
2023-07-06T05:43:02.010Z,39.43
2023-07-06T05:44:02.334Z,39.45
2023-07-06T05:45:01.979Z,39.45
2023-07-06T05:46:02.038Z,39.46
2023-07-06T05:47:01.999Z,39.45
2023-07-06T05:48:02.079Z,39.43
2023-07-06T05:49:01.950Z,39.45
2023-07-06T05:50:01.944Z,39.38
2023-07-06T05:51:01.969Z,39.47
2023-07-06T05:52:01.954Z,39.49
2023-07-06T05:53:01.939Z,39.54
2023-07-06T05:54:04.334Z,39.50
2023-07-06T05:55:01.957Z,39.51
2023-07-06T05:56:01.925Z,39.47
2023-07-06T05:57:01.971Z,39.50
2023-07-06T05:58:01.939Z,39.52
2023-07-06T05:59:01.936Z,39.52
2023-07-06T06:00:01.925Z,39.57
2023-07-06T06:01:01.940Z,39.57
2023-07-06T06:02:01.917Z,39.61
2023-07-06T06:03:01.949Z,39.63
2023-07-06T06:04:01.939Z,39.56
2023-07-06T06:05:01.856Z,39.53
2023-07-06T06:06:01.875Z,39.52
2023-07-06T06:07:01.869Z,39.56
2023-07-06T06:08:01.858Z,39.63
2023-07-06T06:09:01.849Z,39.60
2023-07-06T06:10:01.836Z,39.60
2023-07-06T06:11:01.825Z,39.60
2023-07-06T06:12:01.884Z,39.64
2023-07-06T06:13:01.821Z,39.58
2023-07-06T06:14:02.355Z,39.65
2023-07-06T06:15:01.861Z,39.64
2023-07-06T06:16:01.810Z,39.63
2023-07-06T06:17:01.866Z,39.65
2023-07-06T06:18:01.800Z,39.69
2023-07-06T06:19:02.338Z,39.65
2023-07-06T06:20:01.759Z,39.66
2023-07-06T06:21:01.791Z,39.68
2023-07-06T06:22:01.774Z,39.64
2023-07-06T06:23:01.800Z,39.67
2023-07-06T06:24:01.789Z,39.66
2023-07-06T06:25:01.792Z,39.65
2023-07-06T06:26:01.776Z,39.64
2023-07-06T06:27:01.750Z,39.68
2023-07-06T06:28:01.717Z,39.69
2023-07-06T06:29:01.732Z,39.61
2023-07-06T06:30:01.717Z,39.63
2023-07-06T06:31:01.710Z,39.69
2023-07-06T06:32:01.778Z,39.71
2023-07-06T06:33:01.744Z,39.66
2023-07-06T06:34:01.680Z,39.66
2023-07-06T06:35:01.682Z,39.65
2023-07-06T06:36:01.662Z,39.64
2023-07-06T06:37:01.688Z,39.64
2023-07-06T06:38:01.694Z,39.61
2023-07-06T06:39:01.732Z,39.61
2023-07-06T06:40:01.715Z,39.65
2023-07-06T06:41:01.665Z,39.59
2023-07-06T06:42:01.674Z,39.63
2023-07-06T06:43:01.648Z,39.62
2023-07-06T06:44:01.614Z,39.69
2023-07-06T06:45:01.626Z,39.65
2023-07-06T06:46:01.671Z,39.59
2023-07-06T06:47:04.344Z,39.62
2023-07-06T06:48:01.682Z,39.61
2023-07-06T06:49:01.641Z,39.46
2023-07-06T06:50:01.622Z,39.35
2023-07-06T06:51:01.597Z,39.30
2023-07-06T06:52:01.595Z,39.29
2023-07-06T06:53:01.571Z,39.26
2023-07-06T06:54:01.590Z,39.43
2023-07-06T06:55:01.591Z,39.50
2023-07-06T06:56:01.578Z,39.54
2023-07-06T06:57:01.571Z,39.53
2023-07-06T06:58:01.557Z,39.55
2023-07-06T06:59:01.556Z,39.55
2023-07-06T07:00:01.526Z,39.58
2023-07-06T07:01:01.538Z,39.58
2023-07-06T07:02:01.760Z,39.54
2023-07-06T07:03:01.578Z,39.60
2023-07-06T07:04:01.600Z,39.65
2023-07-06T07:05:01.543Z,39.58
2023-07-06T07:06:01.501Z,39.53
2023-07-06T07:07:01.502Z,39.52
2023-07-06T07:08:01.484Z,39.54
2023-07-06T07:09:01.504Z,39.51
2023-07-06T07:10:01.511Z,39.56
2023-07-06T07:11:17.859Z,39.55
2023-07-06T07:12:02.472Z,39.59
2023-07-06T07:13:01.444Z,39.56
2023-07-06T07:14:01.601Z,39.60
2023-07-06T07:15:01.426Z,39.56
2023-07-06T07:16:01.458Z,39.56
2023-07-06T07:17:01.404Z,39.53
2023-07-06T07:18:01.419Z,39.54
2023-07-06T07:19:01.440Z,39.47
2023-07-06T07:20:01.829Z,39.56
2023-07-06T07:21:02.645Z,39.55
2023-07-06T07:22:01.416Z,39.60
2023-07-06T07:23:01.367Z,39.51
2023-07-06T07:24:01.388Z,39.49
2023-07-06T07:25:01.431Z,39.54
2023-07-06T07:26:01.395Z,39.54
2023-07-06T07:27:01.384Z,39.58
2023-07-06T07:28:01.425Z,39.58
2023-07-06T07:29:01.419Z,39.54
2023-07-06T07:30:01.817Z,39.54
2023-07-06T07:31:01.468Z,39.52
2023-07-06T07:32:01.493Z,39.56
2023-07-06T07:33:01.515Z,39.52
2023-07-06T07:34:01.523Z,39.61
2023-07-06T07:35:01.555Z,39.55
2023-07-06T07:36:01.540Z,39.60
2023-07-06T07:37:01.597Z,39.56
2023-07-06T07:38:01.664Z,39.55
2023-07-06T07:39:01.715Z,39.56
2023-07-06T07:40:01.812Z,39.57
2023-07-06T07:41:01.773Z,39.59
2023-07-06T07:42:01.822Z,39.59
2023-07-06T07:43:01.850Z,39.60
2023-07-06T07:44:01.878Z,39.59
2023-07-06T07:45:01.948Z,39.55
2023-07-06T07:46:02.021Z,39.53
2023-07-06T07:47:02.069Z,39.50
2023-07-06T07:48:02.105Z,39.56
2023-07-06T07:49:02.152Z,39.56
2023-07-06T07:50:02.195Z,39.59
2023-07-06T07:51:02.204Z,39.60
2023-07-06T07:52:02.229Z,39.53
2023-07-06T07:53:02.311Z,39.49
2023-07-06T07:54:02.822Z,39.49
2023-07-06T07:55:02.834Z,39.51
2023-07-06T07:56:02.347Z,39.45
2023-07-06T07:57:02.419Z,39.52
2023-07-06T07:58:02.438Z,39.44
2023-07-06T07:59:02.437Z,39.44
2023-07-06T08:00:02.465Z,39.47
2023-07-06T08:01:02.514Z,39.42
2023-07-06T08:02:02.517Z,39.53
2023-07-06T08:03:02.682Z,39.42
2023-07-06T08:04:02.556Z,39.46
2023-07-06T08:05:02.529Z,39.47
2023-07-06T08:06:02.490Z,39.38
2023-07-06T08:07:02.535Z,39.42
2023-07-06T08:08:02.576Z,39.41
2023-07-06T08:09:02.556Z,39.37
2023-07-06T08:10:02.598Z,39.39
2023-07-06T08:11:02.637Z,39.34
2023-07-06T08:12:02.612Z,39.34
2023-07-06T08:13:02.650Z,39.37
2023-07-06T08:14:02.715Z,39.38
2023-07-06T08:15:02.653Z,39.43
2023-07-06T08:16:02.803Z,39.42
2023-07-06T08:17:02.706Z,39.41
2023-07-06T08:18:02.727Z,39.46
2023-07-06T08:19:15.167Z,39.41
2023-07-06T08:20:25.761Z,39.46
2023-07-06T08:21:44.421Z,39.45
2023-07-06T08:23:03.718Z,39.44
2023-07-06T08:24:02.735Z,39.47
2023-07-06T08:25:02.836Z,39.47
2023-07-06T08:26:02.737Z,39.45
2023-07-06T08:27:02.757Z,39.42
2023-07-06T08:28:02.677Z,39.41
2023-07-06T08:29:02.692Z,39.40
2023-07-06T08:30:02.893Z,39.38
2023-07-06T08:31:02.682Z,39.36
2023-07-06T08:32:02.652Z,39.37
2023-07-06T08:33:02.694Z,39.36
2023-07-06T08:34:02.657Z,39.35
2023-07-06T08:35:02.833Z,39.36
2023-07-06T08:36:02.742Z,39.35
2023-07-06T08:37:02.648Z,39.43
2023-07-06T08:38:02.611Z,39.41
2023-07-06T08:39:02.619Z,39.47
2023-07-06T08:40:02.586Z,39.43
2023-07-06T08:41:02.589Z,39.41
2023-07-06T08:42:02.604Z,39.33
2023-07-06T08:43:02.564Z,39.38
2023-07-06T08:44:02.595Z,39.33
2023-07-06T08:45:02.558Z,39.37
2023-07-06T08:46:02.638Z,39.33
2023-07-06T08:47:02.735Z,39.37
2023-07-06T08:48:02.796Z,39.35
2023-07-06T08:49:02.857Z,39.29
2023-07-06T08:50:02.836Z,39.31
2023-07-06T08:51:02.867Z,39.32
2023-07-06T08:52:02.997Z,39.31
2023-07-06T08:53:03.026Z,39.27
2023-07-06T08:54:03.187Z,39.27
2023-07-06T08:55:03.343Z,39.24
2023-07-06T08:56:03.182Z,39.19
2023-07-06T08:57:03.258Z,39.09
2023-07-06T08:58:03.306Z,39.09
2023-07-06T08:59:03.376Z,39.07
2023-07-06T09:00:03.427Z,39.00
2023-07-06T09:01:03.515Z,38.93
2023-07-06T09:02:03.542Z,38.98
2023-07-06T09:03:03.952Z,38.93
2023-07-06T09:04:03.669Z,38.94
2023-07-06T09:05:03.863Z,38.91
2023-07-06T09:06:03.717Z,38.82
2023-07-06T09:07:03.833Z,38.80
2023-07-06T09:08:03.875Z,38.77
2023-07-06T09:09:03.990Z,38.71
2023-07-06T09:10:22.535Z,38.58
2023-07-06T09:11:20.427Z,38.57
2023-07-06T09:12:04.958Z,38.57
2023-07-06T09:13:03.985Z,38.51
2023-07-06T09:14:04.070Z,38.44
2023-07-06T09:15:04.000Z,38.40
2023-07-06T09:16:03.936Z,38.38
2023-07-06T09:17:04.013Z,38.27
2023-07-06T09:18:04.327Z,38.26
2023-07-06T09:19:03.925Z,38.19
2023-07-06T09:20:03.931Z,38.16
2023-07-06T09:21:03.957Z,38.15
2023-07-06T09:22:03.928Z,38.08
2023-07-06T09:23:03.920Z,38.08
2023-07-06T09:24:03.898Z,38.10
2023-07-06T09:25:03.898Z,38.05
2023-07-06T09:26:03.907Z,38.05
2023-07-06T09:27:03.906Z,38.00
2023-07-06T09:28:03.886Z,37.97
2023-07-06T09:29:03.847Z,37.96
2023-07-06T09:30:03.876Z,37.88
2023-07-06T09:31:04.005Z,37.95
2023-07-06T09:32:03.827Z,37.88
2023-07-06T09:33:03.909Z,37.93
2023-07-06T09:34:03.860Z,37.79
2023-07-06T09:35:03.850Z,37.76
2023-07-06T09:36:03.877Z,37.79
2023-07-06T09:37:03.992Z,37.74
2023-07-06T09:38:03.993Z,37.69
2023-07-06T09:39:04.062Z,38.11
2023-07-06T09:40:04.103Z,37.98
2023-07-06T09:41:04.154Z,38.20
2023-07-06T09:42:04.186Z,38.24
2023-07-06T09:43:04.243Z,38.22
2023-07-06T09:44:04.323Z,38.27
2023-07-06T09:45:04.354Z,38.32
2023-07-06T09:46:05.723Z,38.33
2023-07-06T09:47:04.703Z,38.42
2023-07-06T09:48:04.568Z,38.53
2023-07-06T09:49:04.559Z,38.60
2023-07-06T09:50:04.656Z,38.82
2023-07-06T09:51:04.631Z,38.78
2023-07-06T09:52:04.641Z,38.84
2023-07-06T09:53:04.703Z,38.92
2023-07-06T09:54:04.716Z,38.90
2023-07-06T09:55:04.757Z,38.88
2023-07-06T09:56:04.761Z,38.89
2023-07-06T09:57:04.818Z,38.95
2023-07-06T09:58:04.809Z,38.96
2023-07-06T09:59:04.839Z,39.10
2023-07-06T10:00:04.853Z,39.06
2023-07-06T10:01:04.916Z,39.02
2023-07-06T10:02:04.860Z,39.02
2023-07-06T10:03:04.963Z,39.41
2023-07-06T10:04:04.862Z,39.30
2023-07-06T10:05:04.876Z,39.69
2023-07-06T10:06:04.850Z,39.23
2023-07-06T10:07:04.845Z,39.65
2023-07-06T10:08:04.851Z,39.65
2023-07-06T10:09:04.872Z,39.27
2023-07-06T10:10:04.877Z,39.36
2023-07-06T10:11:04.864Z,39.25
2023-07-06T10:12:04.831Z,39.73
2023-07-06T10:13:04.836Z,40.03
2023-07-06T10:14:04.875Z,39.96
2023-07-06T10:15:04.868Z,39.63
2023-07-06T10:16:04.889Z,39.60
2023-07-06T10:17:04.938Z,39.65
2023-07-06T10:18:04.983Z,39.70
2023-07-06T10:19:04.990Z,39.93
2023-07-06T10:20:05.349Z,39.81
2023-07-06T10:21:05.108Z,39.95
2023-07-06T10:22:05.186Z,39.91
2023-07-06T10:23:05.291Z,39.87
2023-07-06T10:24:05.264Z,40.01
2023-07-06T10:25:05.355Z,39.95
2023-07-06T10:26:05.629Z,40.17
2023-07-06T10:27:05.424Z,40.35
2023-07-06T10:28:05.453Z,40.14
2023-07-06T10:29:05.510Z,39.98
2023-07-06T10:30:05.556Z,39.58
2023-07-06T10:31:05.601Z,39.27
2023-07-06T10:32:05.847Z,39.30
2023-07-06T10:33:05.770Z,39.27
2023-07-06T10:34:05.757Z,39.20
2023-07-06T10:35:05.830Z,39.25
2023-07-06T10:36:05.864Z,39.16
2023-07-06T10:37:05.947Z,39.10
2023-07-06T10:38:06.023Z,39.12
2023-07-06T10:39:06.068Z,39.03
2023-07-06T10:40:06.423Z,39.01
2023-07-06T10:41:06.217Z,38.95
2023-07-06T10:42:13.370Z,38.89
2023-07-06T10:43:06.238Z,38.84
2023-07-06T10:44:06.247Z,38.81
2023-07-06T10:45:06.263Z,38.79
2023-07-06T10:46:06.234Z,38.73
2023-07-06T10:47:06.207Z,38.70
2023-07-06T10:48:06.275Z,38.74
2023-07-06T10:49:06.361Z,38.63
2023-07-06T10:50:06.194Z,38.65
2023-07-06T10:51:06.155Z,38.58
2023-07-06T10:52:06.186Z,38.52
2023-07-06T10:53:06.184Z,38.56
2023-07-06T10:54:06.195Z,38.48
2023-07-06T10:55:06.441Z,38.43
2023-07-06T10:56:06.153Z,38.47
2023-07-06T10:57:06.146Z,38.43
2023-07-06T10:58:06.113Z,38.41
2023-07-06T10:59:06.104Z,38.37
2023-07-06T11:00:06.406Z,38.33
2023-07-06T11:01:06.128Z,38.31
2023-07-06T11:02:06.124Z,38.25
2023-07-06T11:03:06.133Z,38.18
2023-07-06T11:04:06.248Z,38.10
2023-07-06T11:05:06.085Z,38.11
2023-07-06T11:06:06.076Z,38.03
2023-07-06T11:07:06.059Z,38.04
2023-07-06T11:08:06.073Z,38.02
2023-07-06T11:09:06.052Z,37.94
2023-07-06T11:10:06.048Z,37.94
2023-07-06T11:11:06.029Z,37.92
2023-07-06T11:12:06.034Z,37.92
2023-07-06T11:13:06.075Z,37.86
2023-07-06T11:14:06.066Z,37.82
2023-07-06T11:15:06.441Z,37.74
2023-07-06T11:16:06.841Z,37.78
2023-07-06T11:17:06.025Z,37.70
2023-07-06T11:18:06.045Z,37.63
2023-07-06T11:19:06.015Z,37.62
2023-07-06T11:20:06.403Z,37.63
2023-07-06T11:21:06.028Z,37.52
2023-07-06T11:22:05.976Z,37.46
2023-07-06T11:23:06.017Z,37.39
2023-07-06T11:24:05.984Z,37.43
2023-07-06T11:25:06.482Z,37.42
2023-07-06T11:26:05.933Z,37.35
2023-07-06T11:27:05.948Z,37.32
2023-07-06T11:28:05.982Z,37.28
2023-07-06T11:29:05.967Z,37.20
2023-07-06T11:30:06.439Z,37.22
2023-07-06T11:31:05.989Z,37.15
2023-07-06T11:32:05.902Z,37.15
2023-07-06T11:33:05.969Z,37.07
2023-07-06T11:34:05.906Z,37.06
2023-07-06T11:35:05.934Z,36.98
2023-07-06T11:36:05.887Z,36.93
2023-07-06T11:37:05.936Z,36.95
2023-07-06T11:38:05.864Z,36.92
2023-07-06T11:39:05.956Z,36.81
2023-07-06T11:40:05.936Z,36.85
2023-07-06T11:41:05.882Z,36.77
2023-07-06T11:42:05.865Z,36.74
2023-07-06T11:43:05.846Z,36.73
2023-07-06T11:44:05.887Z,36.68
2023-07-06T11:45:05.915Z,36.64
2023-07-06T11:46:05.826Z,36.63
2023-07-06T11:47:05.857Z,36.04
2023-07-06T11:48:05.869Z,36.41
2023-07-06T11:49:05.828Z,36.46
2023-07-06T11:50:05.859Z,36.50
2023-07-06T11:51:05.833Z,36.47
2023-07-06T11:52:05.774Z,36.36
2023-07-06T11:53:05.842Z,36.42
2023-07-06T11:54:05.792Z,36.39
2023-07-06T11:55:05.772Z,36.38
2023-07-06T11:56:05.775Z,36.34
2023-07-06T11:57:05.765Z,36.36
2023-07-06T11:58:05.759Z,36.36
2023-07-06T11:59:05.850Z,36.37
2023-07-06T12:00:05.772Z,36.39
2023-07-06T12:01:05.841Z,36.26
2023-07-06T12:02:05.770Z,36.27
2023-07-06T12:03:05.888Z,36.32
2023-07-06T12:04:05.892Z,36.24
2023-07-06T12:05:05.801Z,36.24
2023-07-06T12:06:05.822Z,36.23
2023-07-06T12:07:05.850Z,36.20
2023-07-06T12:08:05.828Z,36.31
2023-07-06T12:09:05.848Z,36.24
2023-07-06T12:10:05.860Z,36.22
2023-07-06T12:11:05.884Z,36.13
2023-07-06T12:12:05.849Z,36.13
2023-07-06T12:13:05.891Z,36.09
2023-07-06T12:14:05.956Z,36.08
2023-07-06T12:15:05.867Z,36.06
2023-07-06T12:16:06.007Z,36.06
2023-07-06T12:17:05.889Z,36.06
2023-07-06T12:18:06.025Z,36.00
2023-07-06T12:19:05.913Z,35.59
2023-07-06T12:20:05.926Z,35.91
2023-07-06T12:21:05.936Z,35.95
2023-07-06T12:22:05.947Z,35.90
2023-07-06T12:23:05.964Z,35.95
2023-07-06T12:24:05.939Z,35.82
2023-07-06T12:25:05.972Z,35.93
2023-07-06T12:26:05.989Z,35.91
2023-07-06T12:27:06.002Z,36.16
2023-07-06T12:28:06.016Z,36.12
2023-07-06T12:29:06.082Z,36.07
2023-07-06T12:30:06.154Z,36.12
2023-07-06T12:31:06.203Z,36.15
2023-07-06T12:32:06.174Z,36.14
2023-07-06T12:33:06.284Z,36.16
2023-07-06T12:34:06.297Z,36.18
2023-07-06T12:35:06.354Z,36.19
2023-07-06T12:36:06.390Z,36.13
2023-07-06T12:37:06.428Z,36.08
2023-07-06T12:38:06.495Z,36.21
2023-07-06T12:39:06.503Z,36.22
2023-07-06T12:40:06.946Z,36.20
2023-07-06T12:41:06.698Z,36.10
2023-07-06T12:42:06.692Z,36.20
2023-07-06T12:43:06.816Z,36.16
2023-07-06T12:44:06.839Z,36.09
2023-07-06T12:45:09.356Z,36.09
2023-07-06T12:46:07.211Z,36.01
2023-07-06T12:47:07.276Z,36.10
2023-07-06T12:48:07.338Z,36.06
2023-07-06T12:49:07.338Z,35.98
2023-07-06T12:50:07.390Z,35.90
2023-07-06T12:51:07.465Z,35.46
2023-07-06T12:52:07.549Z,35.92
2023-07-06T12:53:07.612Z,36.00
2023-07-06T12:54:07.640Z,35.98